Time;durP1;ratioP1;P1;durP2;ratioP2;P2;SDS_P1;SDS_P2;PMS_P1;PMS_P2;Temp;Humidity;BMP_temperature;BMP_pressure;BME280_temperature;BME280_humidity;BME280_pressure;Samples;Min_cycle;Max_cycle;Signal;HPM_P1;HPM_P2
2021/12/20 00:01:51;;;;;;;26.80;21.80;;;6.50;86.20;;;;;;4936955;29;20048;-81
2021/12/20 00:04:18;;;;;;;29.38;23.08;;;6.50;86.20;;;;;;4937017;29;20044;-81
2021/12/20 00:06:45;;;;;;;28.23;24.45;;;6.50;86.20;;;;;;4936876;29;20048;-81
2021/12/20 00:09:12;;;;;;;29.20;22.92;;;6.50;86.10;;;;;;4936846;29;20043;-81
2021/12/20 00:11:39;;;;;;;34.38;24.42;;;6.50;86.10;;;;;;4936213;29;20062;-81
2021/12/20 00:14:06;;;;;;;32.45;24.27;;;6.50;86.10;;;;;;4936301;29;20048;-81
2021/12/20 00:16:33;;;;;;;28.00;22.55;;;6.50;86.10;;;;;;4936798;29;20053;-81
2021/12/20 00:19:00;;;;;;;27.55;22.83;;;6.50;86.10;;;;;;4936595;29;20048;-81
2021/12/20 00:21:28;;;;;;;29.63;23.20;;;6.50;86.10;;;;;;4936694;29;20090;-81
2021/12/20 00:23:55;;;;;;;27.85;22.77;;;6.50;86.00;;;;;;4936154;29;20054;-81
2021/12/20 00:26:22;;;;;;;26.98;23.20;;;6.50;86.00;;;;;;4936089;28;20052;-81
2021/12/20 00:28:49;;;;;;;27.35;23.20;;;6.50;86.00;;;;;;4936126;29;20048;-81
2021/12/20 00:31:16;;;;;;;29.70;23.77;;;6.60;86.00;;;;;;4936402;29;20678;-81
2021/12/20 00:33:43;;;;;;;29.08;24.27;;;6.50;86.00;;;;;;4936495;29;20521;-82
2021/12/20 00:36:10;;;;;;;29.67;22.13;;;6.60;86.00;;;;;;4936567;29;20054;-81
2021/12/20 00:41:24;;;;;;;33.55;25.75;;;6.50;85.90;;;;;;4937260;29;20051;-81
2021/12/20 00:43:51;;;;;;;31.85;24.83;;;6.50;85.90;;;;;;4936098;29;20514;-81
2021/12/20 00:46:18;;;;;;;33.20;25.23;;;6.50;85.90;;;;;;4936152;29;20078;-81
2021/12/20 00:48:45;;;;;;;32.30;24.48;;;6.60;85.90;;;;;;4936198;29;20043;-81
2021/12/20 00:51:12;;;;;;;31.80;25.27;;;6.50;85.90;;;;;;4936406;29;20522;-81
2021/12/20 00:53:39;;;;;;;33.15;26.00;;;6.50;85.90;;;;;;4935396;29;20418;-81
2021/12/20 00:56:06;;;;;;;31.35;26.10;;;6.60;85.90;;;;;;4935797;29;20540;-81
2021/12/20 00:58:34;;;;;;;35.60;26.00;;;6.60;85.90;;;;;;4935637;29;20046;-81
2021/12/20 01:01:01;;;;;;;34.25;27.55;;;6.60;85.90;;;;;;4936018;29;20534;-81
2021/12/20 01:03:30;;;;;;;34.63;26.98;;;6.60;85.90;;;;;;4936082;29;20044;-81
2021/12/20 01:06:01;;;;;;;33.90;27.95;;;6.60;85.80;;;;;;4935593;29;20043;-81
2021/12/20 01:08:35;;;;;;;34.25;26.92;;;6.60;85.80;;;;;;4933335;29;20047;-81
2021/12/20 01:11:03;;;;;;;37.40;28.30;;;6.60;85.80;;;;;;4935509;29;20111;-81
2021/12/20 01:13:32;;;;;;;33.97;27.42;;;6.60;85.80;;;;;;4935701;29;20047;-81
2021/12/20 01:16:05;;;;;;;38.03;26.90;;;6.50;85.80;;;;;;4935882;29;20059;-82
2021/12/20 01:18:32;;;;;;;34.40;25.90;;;6.60;85.80;;;;;;4935883;29;20040;-81
2021/12/20 01:20:59;;;;;;;30.38;24.20;;;6.50;85.80;;;;;;4935695;29;20056;-81
2021/12/20 01:23:26;;;;;;;30.92;23.23;;;6.60;85.80;;;;;;4937097;28;20054;-81
2021/12/20 01:25:53;;;;;;;31.52;25.52;;;6.60;85.80;;;;;;4935331;29;20047;-81
2021/12/20 01:28:20;;;;;;;30.13;24.50;;;6.60;85.80;;;;;;4935671;29;20414;-81
2021/12/20 01:30:48;;;;;;;34.88;24.52;;;6.60;85.70;;;;;;4935933;29;20046;-81
2021/12/20 01:33:15;;;;;;;33.33;24.52;;;6.60;85.70;;;;;;4920689;29;20051;-81
2021/12/20 01:35:42;;;;;;;33.10;24.90;;;6.60;85.70;;;;;;4934948;29;20048;-81
2021/12/20 01:38:09;;;;;;;30.67;23.10;;;6.60;85.70;;;;;;4935570;29;20066;-82
2021/12/20 01:40:37;;;;;;;33.90;23.95;;;6.60;85.70;;;;;;4935248;29;20054;-81
2021/12/20 01:43:06;;;;;;;30.48;23.38;;;6.60;85.70;;;;;;4935744;29;20052;-81
2021/12/20 01:45:33;;;;;;;33.83;24.73;;;6.60;85.60;;;;;;4935566;29;20403;-81
2021/12/20 01:48:04;;;;;;;29.73;23.15;;;6.60;85.60;;;;;;4935685;29;20058;-81
2021/12/20 01:53:21;;;;;;;28.77;22.35;;;6.60;85.60;;;;;;4939639;29;20418;-81
2021/12/20 01:55:50;;;;;;;34.17;23.63;;;6.60;85.60;;;;;;4939014;29;20059;-81
2021/12/20 01:58:18;;;;;;;29.08;21.80;;;6.60;85.60;;;;;;4939155;29;20395;-81
2021/12/20 02:03:34;;;;;;;29.55;22.80;;;6.60;85.60;;;;;;4926275;29;20055;-81
2021/12/20 02:06:06;;;;;;;30.95;21.58;;;6.60;85.50;;;;;;4939218;29;20062;-81
2021/12/20 02:08:33;;;;;;;27.13;21.08;;;6.60;85.50;;;;;;4938425;29;20048;-81
2021/12/20 02:11:12;;;;;;;29.60;21.70;;;6.60;85.50;;;;;;4938686;29;20055;-81
2021/12/20 02:13:40;;;;;;;30.75;20.48;;;6.60;85.50;;;;;;4938859;29;20044;-81
2021/12/20 02:16:08;;;;;;;28.08;20.38;;;6.60;85.50;;;;;;4938887;29;20499;-81
2021/12/20 02:18:36;;;;;;;29.92;22.17;;;6.60;85.50;;;;;;4939040;29;20047;-81
2021/12/20 02:21:04;;;;;;;27.20;21.15;;;6.60;85.50;;;;;;4938884;29;20058;-81
2021/12/20 02:23:31;;;;;;;26.52;19.55;;;6.60;85.50;;;;;;4937798;29;20180;-81
2021/12/20 02:26:01;;;;;;;29.75;19.98;;;6.60;85.40;;;;;;4938853;29;20070;-81
2021/12/20 02:28:35;;;;;;;33.22;21.33;;;6.60;85.40;;;;;;4938753;29;20054;-81
2021/12/20 02:39:15;;;;;;;27.02;18.63;;;6.60;85.40;;;;;;4938280;29;20059;-81
2021/12/20 02:41:43;;;;;;;25.13;18.13;;;6.50;85.40;;;;;;4933941;29;20048;-80
2021/12/20 02:44:21;;;;;;;26.40;17.33;;;6.60;85.40;;;;;;4938510;29;20052;-81
2021/12/20 02:47:02;;;;;;;23.65;17.75;;;6.60;85.30;;;;;;4938235;29;20051;-81
2021/12/20 02:49:29;;;;;;;25.02;16.80;;;6.60;85.30;;;;;;4932853;29;20506;-81
2021/12/20 02:52:08;;;;;;;24.58;17.25;;;6.60;85.30;;;;;;4938412;29;20056;-81
2021/12/20 02:54:36;;;;;;;24.05;17.02;;;6.60;85.30;;;;;;4936890;29;20062;-81
2021/12/20 02:57:04;;;;;;;25.33;17.25;;;6.60;85.20;;;;;;4938046;29;20063;-81
2021/12/20 02:59:31;;;;;;;25.80;16.40;;;6.60;85.20;;;;;;4937428;29;20047;-81
2021/12/20 03:02:05;;;;;;;22.15;16.42;;;6.60;85.20;;;;;;4937744;29;20052;-81
2021/12/20 03:04:32;;;;;;;27.83;16.40;;;6.60;85.20;;;;;;4937646;29;20435;-81
2021/12/20 03:07:06;;;;;;;23.70;17.20;;;6.60;85.10;;;;;;4937689;29;20056;-81
2021/12/20 03:09:38;;;;;;;19.25;14.95;;;6.50;85.20;;;;;;4938072;29;20048;-81
2021/12/20 03:12:07;;;;;;;24.92;15.02;;;6.60;85.20;;;;;;4938107;29;20062;-81
2021/12/20 03:14:41;;;;;;;21.65;15.93;;;6.60;85.20;;;;;;4937185;29;20044;-81
2021/12/20 03:17:10;;;;;;;25.30;15.88;;;6.50;85.10;;;;;;4938013;29;20486;-81
2021/12/20 03:19:37;;;;;;;24.67;15.45;;;6.60;85.10;;;;;;4937966;29;20050;-82
2021/12/20 03:22:07;;;;;;;20.77;14.80;;;6.50;85.10;;;;;;4937384;29;20421;-82
2021/12/20 03:24:34;;;;;;;23.05;15.88;;;6.60;85.10;;;;;;4937824;29;20498;-81
2021/12/20 03:27:01;;;;;;;20.42;14.68;;;6.60;85.00;;;;;;4937687;29;20434;-81
2021/12/20 03:29:28;;;;;;;21.67;15.50;;;6.60;85.00;;;;;;4936907;29;20048;-81
2021/12/20 03:31:56;;;;;;;21.63;16.05;;;6.60;85.00;;;;;;4937568;29;20055;-81
2021/12/20 03:34:23;;;;;;;23.42;15.73;;;6.60;85.00;;;;;;4937507;29;20055;-81
2021/12/20 03:36:50;;;;;;;25.77;15.48;;;6.60;85.00;;;;;;4937077;29;20047;-82
2021/12/20 03:39:17;;;;;;;21.92;14.38;;;6.50;85.00;;;;;;4937605;29;20057;-81
2021/12/20 03:41:44;;;;;;;21.17;14.85;;;6.50;85.00;;;;;;4936854;29;20047;-82
2021/12/20 03:44:12;;;;;;;23.30;14.88;;;6.60;84.90;;;;;;4938794;29;20430;-81
2021/12/20 03:46:39;;;;;;;21.65;14.55;;;6.50;84.90;;;;;;4937238;29;20043;-81
2021/12/20 03:49:08;;;;;;;22.70;14.88;;;6.50;84.90;;;;;;4937281;29;20071;-81
2021/12/20 03:51:36;;;;;;;22.40;14.45;;;6.50;84.90;;;;;;4936989;29;20040;-81
2021/12/20 03:54:04;;;;;;;23.52;15.57;;;6.60;84.90;;;;;;4937314;29;20140;-81
2021/12/20 03:56:31;;;;;;;24.48;15.13;;;6.50;84.80;;;;;;4936213;29;20063;-82
2021/12/20 03:58:58;;;;;;;23.00;14.38;;;6.60;84.80;;;;;;4936003;29;20044;-81
2021/12/20 04:01:26;;;;;;;20.70;14.73;;;6.60;84.80;;;;;;4937091;29;20043;-81
2021/12/20 04:03:53;;;;;;;21.50;15.70;;;6.60;84.80;;;;;;4937067;29;20047;-81
2021/12/20 04:06:20;;;;;;;26.10;16.77;;;6.60;84.80;;;;;;4936635;29;20057;-81
2021/12/20 04:08:48;;;;;;;20.55;14.93;;;6.60;84.80;;;;;;4936120;29;20077;-81
2021/12/20 04:11:15;;;;;;;22.27;15.35;;;6.60;84.70;;;;;;4936727;29;20491;-81
2021/12/20 04:13:42;;;;;;;21.90;15.45;;;6.60;84.70;;;;;;4936516;29;20052;-81
2021/12/20 04:16:09;;;;;;;24.13;16.17;;;6.60;84.70;;;;;;4936641;29;20407;-81
2021/12/20 04:18:37;;;;;;;20.75;14.43;;;6.60;84.70;;;;;;4936873;29;20059;-81
2021/12/20 04:21:06;;;;;;;23.60;16.52;;;6.60;84.70;;;;;;4936649;29;20060;-81
2021/12/20 04:23:34;;;;;;;24.80;15.20;;;6.60;84.70;;;;;;4935799;29;20418;-81
2021/12/20 04:26:01;;;;;;;23.08;15.52;;;6.60;84.70;;;;;;4936625;29;20062;-81
2021/12/20 04:28:28;;;;;;;19.55;14.73;;;6.60;84.60;;;;;;4936525;29;20058;-81
2021/12/20 04:30:55;;;;;;;24.10;15.55;;;6.60;84.60;;;;;;4936522;29;20053;-81
2021/12/20 04:33:22;;;;;;;23.45;14.63;;;6.60;84.60;;;;;;4936626;29;20062;-81
2021/12/20 04:35:50;;;;;;;21.38;15.20;;;6.60;84.60;;;;;;4935393;29;20070;-81
2021/12/20 04:38:17;;;;;;;19.88;14.77;;;6.60;84.60;;;;;;4936356;29;20058;-81
2021/12/20 04:40:44;;;;;;;19.35;13.10;;;6.60;84.60;;;;;;4936339;29;20050;-81
2021/12/20 04:43:11;;;;;;;23.77;15.48;;;6.60;84.50;;;;;;4936335;29;20054;-81
2021/12/20 04:45:38;;;;;;;19.80;13.88;;;6.60;84.50;;;;;;4936482;29;20054;-81
2021/12/20 04:48:06;;;;;;;22.90;13.75;;;6.60;84.50;;;;;;4936054;29;20119;-81
2021/12/20 04:50:33;;;;;;;20.75;14.50;;;6.60;84.50;;;;;;4935154;29;20048;-81
2021/12/20 04:53:01;;;;;;;20.10;15.20;;;6.60;84.50;;;;;;4936134;29;20538;-81
2021/12/20 04:55:29;;;;;;;20.17;13.73;;;6.60;84.40;;;;;;4935968;29;20051;-81
2021/12/20 04:57:57;;;;;;;24.50;14.27;;;6.60;84.40;;;;;;4936077;29;20054;-81
2021/12/20 05:00:30;;;;;;;23.40;14.02;;;6.60;84.40;;;;;;4936151;29;20043;-81
2021/12/20 05:02:57;;;;;;;22.10;14.73;;;6.60;84.40;;;;;;4935581;29;20051;-81
2021/12/20 05:05:25;;;;;;;26.17;16.38;;;6.60;84.40;;;;;;4935256;28;20039;-82
2021/12/20 05:07:54;;;;;;;24.58;16.77;;;6.60;84.40;;;;;;4935779;29;20054;-81
2021/12/20 05:10:26;;;;;;;20.25;16.02;;;6.60;84.30;;;;;;4936033;29;20119;-81
2021/12/20 05:12:55;;;;;;;21.10;15.93;;;6.60;84.30;;;;;;4935946;29;20056;-81
2021/12/20 05:15:23;;;;;;;21.52;15.93;;;6.60;84.30;;;;;;4936133;29;20327;-81
2021/12/20 05:17:51;;;;;;;24.33;15.88;;;6.60;84.20;;;;;;4934763;29;20066;-81
2021/12/20 05:20:18;;;;;;;22.42;16.67;;;6.60;84.20;;;;;;4937139;29;20044;-81
2021/12/20 05:22:46;;;;;;;21.98;16.55;;;6.60;84.20;;;;;;4935696;29;20066;-81
2021/12/20 05:25:13;;;;;;;25.73;16.58;;;6.60;84.20;;;;;;4935422;29;20044;-81
2021/12/20 05:27:40;;;;;;;27.65;17.48;;;6.60;84.20;;;;;;4935490;29;20051;-81
2021/12/20 05:30:10;;;;;;;23.08;16.73;;;6.60;84.20;;;;;;4935874;29;20502;-81
2021/12/20 05:32:37;;;;;;;23.88;16.92;;;6.60;84.20;;;;;;4934704;29;20051;-81
2021/12/20 05:35:09;;;;;;;25.55;17.27;;;6.60;84.20;;;;;;4935669;29;20473;-81
2021/12/20 05:37:37;;;;;;;27.10;18.25;;;6.60;84.20;;;;;;4935630;29;20048;-81
2021/12/20 05:40:06;;;;;;;28.88;17.92;;;6.60;84.20;;;;;;4935613;29;20055;-81
2021/12/20 05:42:33;;;;;;;23.58;16.73;;;6.70;84.20;;;;;;4935868;29;20043;-81
2021/12/20 05:45:00;;;;;;;25.60;18.50;;;6.60;84.20;;;;;;4935746;29;20062;-82
2021/12/20 05:47:27;;;;;;;26.58;18.15;;;6.60;84.10;;;;;;4932559;29;20051;-81
2021/12/20 05:49:54;;;;;;;25.58;18.00;;;6.60;84.10;;;;;;4935570;29;20498;-81
2021/12/20 05:52:21;;;;;;;23.70;17.85;;;6.60;84.10;;;;;;4935609;29;20058;-81
2021/12/20 05:54:48;;;;;;;25.58;17.23;;;6.60;84.10;;;;;;4935628;29;20048;-81
2021/12/20 05:57:15;;;;;;;24.33;16.85;;;6.60;84.10;;;;;;4920668;29;20054;-81
2021/12/20 05:59:42;;;;;;;24.67;17.98;;;6.60;84.10;;;;;;4930777;29;20054;-81
2021/12/20 06:02:09;;;;;;;22.77;16.88;;;6.60;84.10;;;;;;4935074;29;20048;-81
2021/12/20 06:04:36;;;;;;;24.65;17.50;;;6.60;84.10;;;;;;4935515;29;20043;-81
2021/12/20 06:07:04;;;;;;;23.73;17.58;;;6.60;84.10;;;;;;4935220;29;20058;-81
2021/12/20 06:09:31;;;;;;;24.42;16.70;;;6.60;84.10;;;;;;4935518;29;20443;-81
2021/12/20 06:11:59;;;;;;;24.23;17.27;;;6.60;84.10;;;;;;4935221;29;20044;-81
2021/12/20 06:14:29;;;;;;;23.17;17.25;;;6.60;84.10;;;;;;4932616;29;20057;-81
2021/12/20 06:16:57;;;;;;;25.63;17.02;;;6.60;84.10;;;;;;4935052;29;20054;-81
2021/12/20 06:19:25;;;;;;;26.60;17.73;;;6.60;84.10;;;;;;4935176;29;20048;-81
2021/12/20 06:21:55;;;;;;;22.98;17.67;;;6.60;84.10;;;;;;4935358;29;20050;-81
2021/12/20 06:24:25;;;;;;;27.58;17.08;;;6.60;84.00;;;;;;4935262;29;20069;-81
2021/12/20 06:26:52;;;;;;;23.25;16.83;;;6.60;84.00;;;;;;4934222;29;20058;-81
2021/12/20 06:29:20;;;;;;;23.58;16.90;;;6.60;84.10;;;;;;4935182;28;20056;-81
2021/12/20 06:31:47;;;;;;;25.95;17.05;;;6.60;84.10;;;;;;4934785;29;20048;-81
2021/12/20 06:34:14;;;;;;;23.83;17.67;;;6.60;84.00;;;;;;4935200;29;20044;-81
2021/12/20 06:36:41;;;;;;;24.60;17.88;;;6.60;84.00;;;;;;4935382;29;20059;-81
2021/12/20 06:39:08;;;;;;;26.40;18.10;;;6.60;84.00;;;;;;4938642;29;20051;-81
2021/12/20 06:41:36;;;;;;;24.98;18.15;;;6.60;84.00;;;;;;4937870;29;20058;-81
2021/12/20 06:44:04;;;;;;;26.88;19.27;;;6.60;84.00;;;;;;4938426;29;20062;-81
2021/12/20 06:46:34;;;;;;;26.15;18.27;;;6.60;84.00;;;;;;4938094;29;20054;-81
2021/12/20 06:49:01;;;;;;;25.83;19.05;;;6.60;84.00;;;;;;4938236;29;20060;-81
2021/12/20 06:51:29;;;;;;;26.13;19.17;;;6.60;84.10;;;;;;4938347;29;20051;-81
2021/12/20 06:53:56;;;;;;;24.15;18.17;;;6.70;84.00;;;;;;4938028;29;20061;-81
2021/12/20 06:56:23;;;;;;;28.00;20.17;;;6.60;84.00;;;;;;4937673;28;20418;-81
2021/12/20 06:58:53;;;;;;;27.48;19.88;;;6.60;84.10;;;;;;4937780;29;20514;-81
2021/12/20 07:01:21;;;;;;;30.98;20.15;;;6.60;84.00;;;;;;4938268;29;20536;-81
2021/12/20 07:03:49;;;;;;;28.00;19.33;;;6.60;84.10;;;;;;4938302;29;20047;-81
2021/12/20 07:06:16;;;;;;;28.08;19.48;;;6.60;84.10;;;;;;4923311;29;20418;-81
2021/12/20 07:08:43;;;;;;;31.27;20.17;;;6.60;84.00;;;;;;4937438;29;20063;-81
2021/12/20 07:11:10;;;;;;;28.33;19.23;;;6.70;84.10;;;;;;4937987;29;20055;-81
2021/12/20 07:13:38;;;;;;;28.38;20.52;;;6.60;84.10;;;;;;4937762;29;20051;-81
2021/12/20 07:16:06;;;;;;;29.13;19.48;;;6.70;84.10;;;;;;4937903;29;20048;-81
2021/12/20 07:18:34;;;;;;;27.77;18.83;;;6.60;84.10;;;;;;4937897;29;20422;-81
2021/12/20 07:21:06;;;;;;;25.27;17.35;;;6.60;84.10;;;;;;4937926;29;20083;-81
2021/12/20 07:23:34;;;;;;;25.02;17.73;;;6.60;84.10;;;;;;4934133;29;20048;-81
2021/12/20 07:26:03;;;;;;;24.27;18.48;;;6.60;84.00;;;;;;4938654;29;20052;-80
2021/12/20 07:28:30;;;;;;;21.85;16.90;;;6.60;84.00;;;;;;4941528;29;20073;-80
2021/12/20 07:30:58;;;;;;;21.63;15.70;;;6.60;84.00;;;;;;4947002;28;20071;-80
2021/12/20 07:33:25;;;;;;;21.88;15.10;;;6.60;83.90;;;;;;4937200;29;20050;-81
2021/12/20 07:35:52;;;;;;;20.98;15.65;;;6.60;83.90;;;;;;4936680;29;20051;-80
2021/12/20 07:38:20;;;;;;;18.85;13.82;;;6.60;83.90;;;;;;4937043;28;20052;-81
2021/12/20 07:40:49;;;;;;;17.42;13.88;;;6.60;83.80;;;;;;4941881;29;20047;-81
2021/12/20 07:43:18;;;;;;;20.48;14.68;;;6.60;83.80;;;;;;4944207;28;20052;-81
2021/12/20 07:45:47;;;;;;;19.42;14.43;;;6.60;83.70;;;;;;4937292;29;20048;-81
2021/12/20 07:48:19;;;;;;;19.75;14.20;;;6.60;83.70;;;;;;4921210;28;20047;-81
2021/12/20 07:50:47;;;;;;;16.77;13.25;;;6.60;83.60;;;;;;4932288;29;20119;-82
2021/12/20 07:53:15;;;;;;;21.20;13.60;;;6.60;83.60;;;;;;4938578;28;20069;-81
2021/12/20 07:55:42;;;;;;;18.02;14.30;;;6.60;83.60;;;;;;4936582;29;20047;-81
2021/12/20 07:58:09;;;;;;;18.23;13.40;;;6.60;83.50;;;;;;4936530;29;20066;-83
2021/12/20 08:00:38;;;;;;;16.05;12.60;;;6.60;83.50;;;;;;4936745;29;20050;-82
2021/12/20 08:03:05;;;;;;;17.98;13.30;;;6.60;83.40;;;;;;4936206;29;20078;-81
2021/12/20 08:05:33;;;;;;;18.73;13.63;;;6.60;83.40;;;;;;4936102;29;20055;-82
2021/12/20 08:08:02;;;;;;;19.23;13.30;;;6.60;83.40;;;;;;4936457;29;20056;-82
2021/12/20 08:10:32;;;;;;;15.77;12.65;;;6.60;83.40;;;;;;4936492;29;20048;-82
2021/12/20 08:12:59;;;;;;;16.35;13.30;;;6.60;83.40;;;;;;4936149;29;20434;-82
2021/12/20 08:15:27;;;;;;;17.27;13.75;;;6.50;83.40;;;;;;4936574;29;20048;-82
2021/12/20 08:17:57;;;;;;;17.23;13.15;;;6.50;83.30;;;;;;4944735;29;20051;-82
2021/12/20 08:20:25;;;;;;;17.13;13.90;;;6.50;83.30;;;;;;4935655;28;20067;-82
2021/12/20 08:22:53;;;;;;;19.48;14.20;;;6.50;83.30;;;;;;4936380;29;20407;-81
2021/12/20 08:25:20;;;;;;;18.85;14.68;;;6.50;83.30;;;;;;4936031;29;20044;-81
2021/12/20 08:27:48;;;;;;;20.38;14.68;;;6.50;83.30;;;;;;4935751;29;20052;-81
2021/12/20 08:30:16;;;;;;;20.65;14.85;;;6.50;83.40;;;;;;4921619;29;20047;-82
2021/12/20 08:32:44;;;;;;;22.45;15.38;;;6.50;83.30;;;;;;4931210;29;20136;-81
2021/12/20 08:35:13;;;;;;;18.50;13.48;;;6.50;83.30;;;;;;4936094;29;20075;-81
2021/12/20 08:37:41;;;;;;;25.35;18.70;;;6.50;83.30;;;;;;4935959;29;20528;-81
2021/12/20 08:40:11;;;;;;;24.50;16.90;;;6.50;83.40;;;;;;4935901;29;20066;-81
2021/12/20 08:42:40;;;;;;;22.00;16.30;;;6.50;83.40;;;;;;4935723;29;20061;-81
2021/12/20 08:45:09;;;;;;;24.48;17.10;;;6.50;83.40;;;;;;4936044;29;20058;-81
2021/12/20 08:47:36;;;;;;;20.63;16.42;;;6.50;83.40;;;;;;4934773;29;20051;-81
2021/12/20 08:50:08;;;;;;;27.00;18.98;;;6.50;83.40;;;;;;4935819;29;20475;-81
2021/12/20 08:52:36;;;;;;;24.30;16.65;;;6.50;83.40;;;;;;4935959;29;20501;-81
2021/12/20 08:55:04;;;;;;;22.33;18.08;;;6.50;83.40;;;;;;4935009;29;20066;-81
2021/12/20 08:57:32;;;;;;;22.85;17.63;;;6.50;83.40;;;;;;4935980;29;20043;-80
2021/12/20 08:59:59;;;;;;;26.70;19.60;;;6.50;83.40;;;;;;4935255;29;20052;-81
2021/12/20 09:02:26;;;;;;;25.60;18.67;;;6.50;83.40;;;;;;4936209;28;20056;-80
2021/12/20 09:04:54;;;;;;;25.13;19.70;;;6.50;83.40;;;;;;4935602;29;20568;-80
2021/12/20 09:07:21;;;;;;;27.63;20.05;;;6.60;83.40;;;;;;4935562;29;20044;-81
2021/12/20 09:09:48;;;;;;;25.30;19.27;;;6.50;83.50;;;;;;4935115;29;20047;-81
2021/12/20 09:12:18;;;;;;;29.38;19.77;;;6.60;83.50;;;;;;4920489;29;20043;-81
2021/12/20 09:14:48;;;;;;;31.08;20.42;;;6.60;83.50;;;;;;4931013;29;20066;-81
2021/12/20 09:17:16;;;;;;;29.38;19.77;;;6.50;83.50;;;;;;4939740;29;20039;-80
2021/12/20 09:19:43;;;;;;;27.65;20.83;;;6.60;83.50;;;;;;4940855;28;20048;-79
2021/12/20 09:22:11;;;;;;;26.23;20.50;;;6.60;83.50;;;;;;4935613;29;20415;-80
2021/12/20 09:24:40;;;;;;;30.75;21.10;;;6.60;83.50;;;;;;4934972;29;20755;-80
2021/12/20 09:27:08;;;;;;;32.05;19.75;;;6.60;83.50;;;;;;4935427;29;20059;-80
2021/12/20 09:29:35;;;;;;;28.35;19.77;;;6.60;83.50;;;;;;4934707;29;20052;-80
2021/12/20 09:32:03;;;;;;;24.50;20.20;;;6.60;83.60;;;;;;4935133;29;20044;-81
2021/12/20 09:34:31;;;;;;;24.35;18.77;;;6.60;83.50;;;;;;4935802;29;20487;-82
2021/12/20 09:37:03;;;;;;;30.00;20.42;;;6.60;83.60;;;;;;4935447;29;20074;-80
2021/12/20 09:39:32;;;;;;;31.50;21.58;;;6.70;83.60;;;;;;4922980;29;20051;-80
2021/12/20 09:42:03;;;;;;;26.15;20.63;;;6.70;83.60;;;;;;4935499;29;20052;-80
2021/12/20 09:44:31;;;;;;;28.48;20.80;;;6.70;83.60;;;;;;4932932;29;20062;-80
2021/12/20 09:47:01;;;;;;;26.85;20.58;;;6.70;83.50;;;;;;4935590;29;20059;-80
2021/12/20 09:49:30;;;;;;;28.70;20.45;;;6.70;83.60;;;;;;4935517;29;20070;-80
2021/12/20 09:51:58;;;;;;;27.35;20.48;;;6.70;83.60;;;;;;4935747;29;20058;-80
2021/12/20 09:54:27;;;;;;;30.13;20.75;;;6.70;83.60;;;;;;4935450;29;20052;-80
2021/12/20 09:56:55;;;;;;;28.00;20.50;;;6.70;83.60;;;;;;4934590;29;20056;-80
2021/12/20 09:59:26;;;;;;;28.88;20.70;;;6.70;83.60;;;;;;4935251;28;20051;-80
2021/12/20 10:01:53;;;;;;;28.55;19.90;;;6.70;83.60;;;;;;4930106;29;20051;-80
2021/12/20 10:04:22;;;;;;;26.00;19.85;;;6.70;83.60;;;;;;4935398;29;20059;-80
2021/12/20 10:06:52;;;;;;;27.98;20.52;;;6.70;83.60;;;;;;4935345;29;20051;-80
2021/12/20 10:09:26;;;;;;;31.88;20.33;;;6.80;83.60;;;;;;4935092;29;20058;-80
2021/12/20 10:12:19;;;;;;;28.67;20.83;;;6.80;83.50;;;;;;4935120;29;20052;-81
2021/12/20 10:15:10;;;;;;;30.92;20.38;;;6.80;83.60;;;;;;4936422;29;20577;-81
2021/12/20 10:17:59;;;;;;;31.73;21.20;;;6.80;83.50;;;;;;4938277;29;20051;-81
2021/12/20 10:20:29;;;;;;;26.70;20.13;;;6.80;83.50;;;;;;4936115;29;20086;-81
2021/12/20 10:23:14;;;;;;;30.38;21.85;;;6.80;83.50;;;;;;4938558;29;20052;-82
2021/12/20 10:25:44;;;;;;;29.70;21.05;;;6.80;83.50;;;;;;4938794;29;20054;-81
2021/12/20 10:28:16;;;;;;;30.95;20.48;;;6.80;83.50;;;;;;4938771;29;20047;-82
2021/12/20 10:30:46;;;;;;;29.63;21.52;;;6.80;83.50;;;;;;4938759;29;20434;-81
2021/12/20 10:33:17;;;;;;;30.75;21.10;;;6.80;83.50;;;;;;4939102;29;20432;-82
2021/12/20 10:36:03;;;;;;;29.65;21.08;;;6.90;83.50;;;;;;4934102;29;20059;-82
2021/12/20 10:38:38;;;;;;;30.27;21.35;;;6.90;83.50;;;;;;4935857;29;20062;-82
2021/12/20 10:41:35;;;;;;;29.00;21.20;;;6.90;83.40;;;;;;4938591;29;20054;-82
2021/12/20 10:44:20;;;;;;;32.42;21.40;;;6.90;83.50;;;;;;4938483;29;20062;-82
2021/12/20 10:46:49;;;;;;;27.30;20.70;;;6.90;83.40;;;;;;4938534;29;20078;-82
2021/12/20 10:49:18;;;;;;;32.45;20.95;;;6.90;83.40;;;;;;4938202;29;20059;-82
2021/12/20 10:51:48;;;;;;;31.05;21.05;;;6.90;83.40;;;;;;4938214;29;20046;-82
2021/12/20 10:54:20;;;;;;;29.80;21.67;;;6.90;83.40;;;;;;4923436;29;20089;-81
2021/12/20 10:57:01;;;;;;;26.42;19.10;;;6.90;83.30;;;;;;4932676;29;20051;-81
2021/12/20 10:59:31;;;;;;;31.23;20.67;;;6.90;83.30;;;;;;4935593;29;20561;-81
2021/12/20 11:04:52;;;;;;;27.30;20.67;;;6.90;83.30;;;;;;4938097;29;20507;-81
2021/12/20 11:09:52;;;;;;;28.50;19.67;;;6.90;83.20;;;;;;4938034;29;20044;-81
2021/12/20 11:12:33;;;;;;;27.42;19.23;;;6.90;83.10;;;;;;4923450;29;20047;-81
2021/12/20 11:15:12;;;;;;;27.77;18.60;;;6.90;83.00;;;;;;4937915;29;20051;-81
2021/12/20 11:17:44;;;;;;;26.00;18.38;;;6.90;82.90;;;;;;4936699;29;20051;-81
2021/12/20 11:20:18;;;;;;;26.42;18.15;;;6.90;82.80;;;;;;4937579;29;20055;-80
2021/12/20 11:22:45;;;;;;;24.17;16.92;;;6.90;82.70;;;;;;4935006;29;20134;-80
2021/12/20 11:25:14;;;;;;;25.55;15.82;;;6.90;82.60;;;;;;4936780;29;20058;-80
2021/12/20 11:27:42;;;;;;;23.95;15.50;;;6.90;82.50;;;;;;4940447;29;20042;-80
2021/12/20 11:30:16;;;;;;;22.75;15.77;;;6.90;82.40;;;;;;4937867;28;20067;-80
2021/12/20 11:32:46;;;;;;;22.08;14.30;;;6.90;82.30;;;;;;4932252;29;20499;-80
2021/12/20 11:35:16;;;;;;;25.35;14.85;;;6.90;82.10;;;;;;4938265;29;20052;-80
2021/12/20 11:37:43;;;;;;;21.98;13.77;;;6.90;82.00;;;;;;4937114;29;20131;-80
2021/12/20 11:40:16;;;;;;;22.70;13.50;;;6.90;81.80;;;;;;4939571;29;20052;-80
2021/12/20 11:42:43;;;;;;;22.75;14.43;;;6.90;81.70;;;;;;4937246;29;20050;-80
2021/12/20 11:45:15;;;;;;;18.85;13.77;;;6.90;81.50;;;;;;4936986;29;20043;-80
2021/12/20 11:47:59;;;;;;;22.48;13.40;;;6.90;81.30;;;;;;4932453;29;20502;-80
2021/12/20 11:50:34;;;;;;;19.98;12.95;;;6.90;81.10;;;;;;4934118;29;20047;-80
2021/12/20 11:53:09;;;;;;;22.13;13.02;;;6.90;81.00;;;;;;4937218;29;20062;-82
2021/12/20 11:55:39;;;;;;;24.50;12.32;;;6.90;80.80;;;;;;4937029;29;20062;-80
2021/12/20 11:58:21;;;;;;;19.00;11.85;;;6.90;80.80;;;;;;4937046;29;20052;-81
2021/12/20 12:00:51;;;;;;;20.80;12.30;;;6.90;80.50;;;;;;4937333;29;20043;-80
2021/12/20 12:03:27;;;;;;;21.63;12.15;;;6.90;80.40;;;;;;4922242;29;20106;-80
2021/12/20 12:05:55;;;;;;;18.38;11.45;;;6.90;80.30;;;;;;4936292;29;20193;-80
2021/12/20 12:08:34;;;;;;;18.60;11.88;;;6.90;80.20;;;;;;4936525;28;20503;-80
2021/12/20 12:11:08;;;;;;;18.90;11.38;;;6.90;80.00;;;;;;4936878;29;20047;-80
2021/12/20 12:14:03;;;;;;;22.40;11.45;;;6.90;79.90;;;;;;4936763;29;20054;-80
2021/12/20 12:16:53;;;;;;;19.00;11.40;;;6.80;79.80;;;;;;4936530;29;20063;-80
2021/12/20 12:19:48;;;;;;;16.40;9.95;;;6.90;79.70;;;;;;4936507;29;20506;-80
2021/12/20 12:22:43;;;;;;;19.58;10.68;;;6.90;79.50;;;;;;4936749;29;20111;-80
2021/12/20 12:25:34;;;;;;;17.65;9.95;;;6.90;79.40;;;;;;4936966;29;20095;-80
2021/12/20 12:28:02;;;;;;;17.35;9.55;;;6.80;79.30;;;;;;4933995;29;20532;-80
2021/12/20 12:30:31;;;;;;;21.25;9.80;;;6.80;79.30;;;;;;4935730;29;20054;-80
2021/12/20 12:32:58;;;;;;;18.30;10.13;;;6.90;79.20;;;;;;4944573;29;20433;-80
2021/12/20 12:35:41;;;;;;;17.17;9.30;;;6.80;79.10;;;;;;4935205;28;20087;-80
2021/12/20 12:38:12;;;;;;;18.85;8.68;;;6.80;79.00;;;;;;4935804;29;20048;-80
2021/12/20 12:40:39;;;;;;;17.75;9.38;;;6.80;78.90;;;;;;4936394;29;20553;-80
2021/12/20 12:43:06;;;;;;;18.20;8.32;;;6.80;78.90;;;;;;4936373;29;20051;-81
2021/12/20 12:46:00;;;;;;;18.80;8.40;;;6.80;78.80;;;;;;4936424;29;20051;-80
2021/12/20 12:48:49;;;;;;;21.55;8.70;;;6.80;78.70;;;;;;4922790;29;20422;-80
2021/12/20 12:51:19;;;;;;;16.77;8.02;;;6.80;78.60;;;;;;4921290;29;20051;-80
2021/12/20 12:53:52;;;;;;;17.58;8.68;;;6.80;78.50;;;;;;4931804;29;20051;-81
2021/12/20 12:56:31;;;;;;;19.77;8.38;;;6.80;78.40;;;;;;4936389;29;20075;-80
2021/12/20 12:59:16;;;;;;;23.25;9.48;;;6.80;78.30;;;;;;4936053;29;20532;-80
2021/12/20 13:02:07;;;;;;;14.18;7.80;;;6.80;78.20;;;;;;4932939;29;20087;-80
2021/12/20 13:04:50;;;;;;;18.13;7.70;;;6.80;78.10;;;;;;4930916;29;20044;-80
2021/12/20 13:07:17;;;;;;;17.58;8.25;;;6.80;78.00;;;;;;4937053;29;20044;-80
2021/12/20 13:09:47;;;;;;;17.08;7.97;;;6.80;77.90;;;;;;4947148;28;20054;-80
2021/12/20 13:12:49;;;;;;;16.88;7.72;;;6.80;77.90;;;;;;4935812;29;20147;-80
2021/12/20 13:15:22;;;;;;;17.75;7.10;;;6.80;77.70;;;;;;4934597;29;20060;-80